createdAt,value
2023-02-02T00:01:21.942Z,4.70
2023-02-02T00:03:52.651Z,4.70
2023-02-02T00:06:26.047Z,4.70
2023-02-02T00:08:53.727Z,4.70
2023-02-02T00:11:20.823Z,4.70
2023-02-02T00:13:47.731Z,4.70
2023-02-02T00:16:26.932Z,4.70
2023-02-02T00:18:56.008Z,4.70
2023-02-02T00:21:23.999Z,4.70
2023-02-02T00:23:51.751Z,4.70
2023-02-02T00:26:19.675Z,4.70
2023-02-02T00:28:46.950Z,4.70
2023-02-02T00:31:13.996Z,4.70
2023-02-02T00:33:44.626Z,4.70
2023-02-02T00:36:11.507Z,4.70
2023-02-02T00:38:38.444Z,4.70
2023-02-02T00:41:05.997Z,4.60
2023-02-02T00:43:33.205Z,4.50
2023-02-02T00:46:00.423Z,4.50
2023-02-02T00:48:27.395Z,4.50
2023-02-02T00:50:54.866Z,4.50
2023-02-02T00:53:22.106Z,4.60
2023-02-02T00:55:49.067Z,4.50
2023-02-02T00:58:16.069Z,4.40
2023-02-02T01:00:43.045Z,4.40
2023-02-02T01:03:10.541Z,4.40
2023-02-02T01:05:37.486Z,4.40
2023-02-02T01:08:04.494Z,4.40
2023-02-02T01:10:31.485Z,4.50
2023-02-02T01:12:58.404Z,4.50
2023-02-02T01:15:25.736Z,4.60
2023-02-02T01:17:52.878Z,4.60
2023-02-02T01:20:21.070Z,4.40
2023-02-02T01:22:48.352Z,4.20
2023-02-02T01:25:15.390Z,4.20
2023-02-02T01:27:43.275Z,4.30
2023-02-02T01:30:11.376Z,4.40
2023-02-02T01:32:38.327Z,4.50
2023-02-02T01:35:08.283Z,4.30
2023-02-02T01:37:35.276Z,4.20
2023-02-02T01:40:02.289Z,3.90
2023-02-02T01:42:29.196Z,3.80
2023-02-02T01:45:26.657Z,3.70
2023-02-02T01:47:58.455Z,3.60
2023-02-02T01:50:31.271Z,3.60
2023-02-02T01:53:00.924Z,3.70
2023-02-02T01:55:30.940Z,3.60
2023-02-02T01:58:08.384Z,3.50
2023-02-02T02:00:36.004Z,3.50
2023-02-02T02:03:09.140Z,3.50
2023-02-02T02:05:49.126Z,3.60
2023-02-02T02:08:20.448Z,3.70
2023-02-02T02:10:47.935Z,3.70
2023-02-02T02:13:16.360Z,3.50
2023-02-02T02:16:19.447Z,3.40
2023-02-02T02:18:57.486Z,3.40
2023-02-02T02:22:00.862Z,3.20
2023-02-02T02:25:01.301Z,3.20
2023-02-02T02:27:39.948Z,3.10
2023-02-02T02:30:48.488Z,3.00
2023-02-02T02:33:32.866Z,2.80
2023-02-02T02:36:44.631Z,2.80
2023-02-02T02:39:34.072Z,2.60
2023-02-02T02:42:07.510Z,2.60
2023-02-02T02:44:36.671Z,2.60
2023-02-02T02:47:04.109Z,2.60
2023-02-02T02:49:31.086Z,2.70
2023-02-02T02:51:58.050Z,2.80
2023-02-02T02:54:35.175Z,2.70
2023-02-02T02:57:14.549Z,2.80
2023-02-02T03:00:00.124Z,2.70
2023-02-02T03:02:49.601Z,2.70
2023-02-02T03:05:23.973Z,2.70
2023-02-02T03:07:55.157Z,2.80
2023-02-02T03:10:26.837Z,2.80
2023-02-02T03:12:54.774Z,2.80
2023-02-02T03:15:22.106Z,2.90
2023-02-02T03:17:51.763Z,2.90
2023-02-02T03:20:20.367Z,2.90
2023-02-02T03:22:47.516Z,2.90
2023-02-02T03:25:15.993Z,3.10
2023-02-02T03:27:42.966Z,3.30
2023-02-02T03:30:13.864Z,3.40
2023-02-02T03:32:41.323Z,3.40
2023-02-02T03:35:11.922Z,3.50
2023-02-02T03:37:38.923Z,3.30
2023-02-02T03:40:06.965Z,3.10
2023-02-02T03:42:33.957Z,3.10
2023-02-02T03:45:00.924Z,3.10
2023-02-02T03:47:31.262Z,3.20
2023-02-02T03:49:59.140Z,3.30
2023-02-02T03:52:26.183Z,3.40
2023-02-02T03:54:53.835Z,3.50
2023-02-02T03:57:20.771Z,3.50
2023-02-02T03:59:47.646Z,3.70
2023-02-02T04:02:14.734Z,3.80
2023-02-02T04:04:41.791Z,3.90
2023-02-02T04:07:08.844Z,3.90
2023-02-02T04:09:35.805Z,3.90
2023-02-02T04:12:02.766Z,3.70
2023-02-02T04:14:29.804Z,3.40
2023-02-02T04:16:56.773Z,3.20
2023-02-02T04:19:23.806Z,3.10
2023-02-02T04:21:50.817Z,3.10
2023-02-02T04:24:17.809Z,3.30
2023-02-02T04:26:45.180Z,3.40
2023-02-02T04:29:12.226Z,3.30
2023-02-02T04:31:39.239Z,3.40
2023-02-02T04:34:06.281Z,3.40
2023-02-02T04:36:33.443Z,3.60
2023-02-02T04:39:00.443Z,3.70
2023-02-02T04:41:27.724Z,3.80
2023-02-02T04:43:54.726Z,3.80
2023-02-02T04:46:21.734Z,3.90
2023-02-02T04:48:49.718Z,4.00
2023-02-02T04:51:18.799Z,4.00
2023-02-02T04:53:46.288Z,4.10
2023-02-02T04:56:15.551Z,4.20
2023-02-02T04:58:43.686Z,4.30
2023-02-02T05:01:21.125Z,4.30
2023-02-02T05:03:49.248Z,4.30
2023-02-02T05:06:17.809Z,4.40
2023-02-02T05:08:45.068Z,4.40
2023-02-02T05:11:19.626Z,4.30
2023-02-02T05:13:54.879Z,4.40
2023-02-02T05:16:23.609Z,4.40
2023-02-02T05:18:56.903Z,4.40
2023-02-02T05:21:24.524Z,4.50
2023-02-02T05:23:51.593Z,4.50
2023-02-02T05:26:22.806Z,4.40
2023-02-02T05:28:49.933Z,4.30
2023-02-02T05:31:17.280Z,4.20
2023-02-02T05:33:44.536Z,4.00
2023-02-02T05:36:12.730Z,3.80
2023-02-02T05:38:39.933Z,3.80
2023-02-02T05:41:07.007Z,3.60
2023-02-02T05:43:34.636Z,3.50
2023-02-02T05:46:02.110Z,3.40
2023-02-02T05:48:29.524Z,3.40
2023-02-02T05:51:41.759Z,3.50
2023-02-02T05:54:08.979Z,3.50
2023-02-02T05:56:36.083Z,3.50
2023-02-02T05:59:07.540Z,3.50
2023-02-02T06:01:35.007Z,3.50
2023-02-02T06:04:01.993Z,3.40
2023-02-02T06:06:28.962Z,3.30
2023-02-02T06:08:55.923Z,3.30
2023-02-02T06:11:23.166Z,3.40
2023-02-02T06:13:50.563Z,3.50
2023-02-02T06:16:17.602Z,3.60
2023-02-02T06:18:45.378Z,3.70
2023-02-02T06:21:12.450Z,3.70
2023-02-02T06:23:43.536Z,3.70
2023-02-02T06:26:10.448Z,3.70
2023-02-02T06:28:37.335Z,3.80
2023-02-02T06:31:09.990Z,3.90
2023-02-02T06:33:38.047Z,3.90
2023-02-02T06:36:07.164Z,4.10
2023-02-02T06:38:34.054Z,4.20
2023-02-02T06:41:02.185Z,4.20
2023-02-02T06:43:30.146Z,4.20
2023-02-02T06:46:00.235Z,4.20
2023-02-02T06:48:27.955Z,4.30
2023-02-02T06:50:57.721Z,4.30
2023-02-02T06:53:25.012Z,4.40
2023-02-02T06:56:03.807Z,4.40
2023-02-02T06:58:32.136Z,4.40
2023-02-02T07:01:04.569Z,4.40
2023-02-02T07:03:32.063Z,4.40
2023-02-02T07:05:59.649Z,4.00
2023-02-02T07:08:26.605Z,3.80
2023-02-02T07:11:14.577Z,3.70
2023-02-02T07:13:41.205Z,3.70
2023-02-02T07:16:09.780Z,3.70
2023-02-02T07:18:39.764Z,3.80
2023-02-02T07:21:07.374Z,3.70
2023-02-02T07:23:34.844Z,3.60
2023-02-02T07:26:10.133Z,3.50
2023-02-02T07:28:37.174Z,3.60
2023-02-02T07:31:17.506Z,3.40
2023-02-02T07:33:46.214Z,3.20
2023-02-02T07:36:19.412Z,3.00
2023-02-02T07:38:48.102Z,2.80
2023-02-02T07:41:15.645Z,2.70
2023-02-02T07:43:43.267Z,2.60
2023-02-02T07:46:13.083Z,2.70
2023-02-02T07:48:40.896Z,2.80
2023-02-02T07:51:11.498Z,2.80
2023-02-02T07:53:38.647Z,2.70
2023-02-02T07:56:17.225Z,2.70
2023-02-02T07:58:45.338Z,2.70
2023-02-02T08:01:14.270Z,2.70
2023-02-02T08:03:43.054Z,2.80
2023-02-02T08:06:17.821Z,2.90
2023-02-02T08:08:45.335Z,3.20
2023-02-02T08:11:14.135Z,3.30
2023-02-02T08:13:42.180Z,3.40
2023-02-02T08:16:10.510Z,3.30
2023-02-02T08:18:38.695Z,3.30
2023-02-02T08:21:09.067Z,3.40
2023-02-02T08:23:37.652Z,3.20
2023-02-02T08:26:14.840Z,3.00
2023-02-02T08:28:43.392Z,3.10
2023-02-02T08:31:14.311Z,3.00
2023-02-02T08:33:41.480Z,3.10
2023-02-02T08:36:16.937Z,3.20
2023-02-02T08:38:44.248Z,3.40
2023-02-02T08:41:13.668Z,3.50
2023-02-02T08:43:41.653Z,3.70
2023-02-02T08:46:11.753Z,3.80
2023-02-02T08:48:39.008Z,3.80
2023-02-02T08:51:07.544Z,3.90
2023-02-02T08:53:34.925Z,4.00
2023-02-02T08:56:07.802Z,4.20
2023-02-02T08:58:35.115Z,4.20
2023-02-02T09:01:18.356Z,4.30
2023-02-02T09:03:46.370Z,4.40
2023-02-02T09:06:16.073Z,4.40
2023-02-02T09:08:43.254Z,4.50
2023-02-02T09:11:13.084Z,4.50
2023-02-02T09:13:41.523Z,4.60
2023-02-02T09:16:11.359Z,4.70
2023-02-02T09:18:39.082Z,4.80
2023-02-02T09:21:08.722Z,4.80
2023-02-02T09:23:38.972Z,4.80
2023-02-02T09:26:26.653Z,4.80
2023-02-02T09:29:02.999Z,4.80
2023-02-02T09:31:33.168Z,4.90
2023-02-02T09:34:09.091Z,4.80
2023-02-02T09:36:37.124Z,4.80
2023-02-02T09:39:04.805Z,4.60
2023-02-02T09:41:40.964Z,4.50
2023-02-02T09:44:26.684Z,4.50
2023-02-02T09:47:12.379Z,4.50
2023-02-02T09:49:57.381Z,4.40
2023-02-02T09:52:43.248Z,4.10
2023-02-02T09:55:28.120Z,3.90
2023-02-02T09:58:24.381Z,3.70
2023-02-02T10:01:14.132Z,3.60
2023-02-02T10:04:04.473Z,3.70
2023-02-02T10:06:39.013Z,3.90
2023-02-02T10:09:47.506Z,4.10
2023-02-02T10:12:29.240Z,4.20
2023-02-02T10:15:35.169Z,4.30
2023-02-02T10:18:32.044Z,4.20
2023-02-02T10:21:14.203Z,4.10
2023-02-02T10:23:45.852Z,4.10
2023-02-02T10:26:26.003Z,4.30
2023-02-02T10:29:14.133Z,4.30
2023-02-02T10:31:41.115Z,4.40
2023-02-02T10:34:43.169Z,4.50
2023-02-02T10:37:29.770Z,4.70
2023-02-02T10:40:08.778Z,4.60
2023-02-02T10:42:35.855Z,4.50
2023-02-02T10:45:16.003Z,4.50
2023-02-02T10:47:43.275Z,4.50
2023-02-02T10:50:13.096Z,4.60
2023-02-02T10:52:52.285Z,4.80
2023-02-02T10:55:28.490Z,4.90
2023-02-02T10:58:13.724Z,4.90
2023-02-02T11:00:52.292Z,5.00
2023-02-02T11:03:26.506Z,5.10
2023-02-02T11:06:12.121Z,5.10
2023-02-02T11:08:44.590Z,5.20
2023-02-02T11:11:33.215Z,5.10
2023-02-02T11:14:11.412Z,5.10
2023-02-02T11:16:44.375Z,5.10
2023-02-02T11:19:31.816Z,4.90
2023-02-02T11:22:02.041Z,5.00
2023-02-02T11:24:49.816Z,5.10
2023-02-02T11:27:33.523Z,5.20
2023-02-02T11:30:11.871Z,5.40
2023-02-02T11:32:38.883Z,5.50
2023-02-02T11:35:08.800Z,5.60
2023-02-02T11:37:51.564Z,5.80
2023-02-02T11:40:33.164Z,5.90
2023-02-02T11:43:03.641Z,6.00
2023-02-02T11:45:40.120Z,6.10
2023-02-02T11:48:21.385Z,6.20
2023-02-02T11:50:51.481Z,6.40
2023-02-02T11:53:27.764Z,6.40
2023-02-02T11:55:56.656Z,6.50
2023-02-02T11:58:30.160Z,6.60
2023-02-02T12:01:04.227Z,6.60
2023-02-02T12:03:35.438Z,6.70
2023-02-02T12:06:21.952Z,6.70
2023-02-02T12:08:49.648Z,6.70
2023-02-02T12:11:58.210Z,6.70
2023-02-02T12:14:32.115Z,6.80
2023-02-02T12:17:35.279Z,6.80
2023-02-02T12:20:20.691Z,6.90
2023-02-02T12:23:05.488Z,6.90
2023-02-02T12:25:51.221Z,7.00
2023-02-02T12:28:26.139Z,7.00
2023-02-02T12:30:55.946Z,7.10
2023-02-02T12:33:50.901Z,7.10
2023-02-02T12:36:28.963Z,7.10
2023-02-02T12:39:14.284Z,7.20
2023-02-02T12:42:14.875Z,7.30
2023-02-02T12:44:59.512Z,7.30
2023-02-02T12:47:35.184Z,7.50
2023-02-02T12:50:26.537Z,7.70
2023-02-02T12:53:17.667Z,7.90
2023-02-02T12:56:06.363Z,8.10
2023-02-02T12:59:01.762Z,8.40
2023-02-02T13:02:03.190Z,8.60
2023-02-02T13:07:51.363Z,9.60
2023-02-02T13:10:41.091Z,10.20
2023-02-02T13:13:16.243Z,10.40
2023-02-02T13:15:47.497Z,10.30
2023-02-02T13:18:21.059Z,10.00
2023-02-02T13:20:53.418Z,10.10
2023-02-02T13:23:35.572Z,10.20
2023-02-02T13:26:18.828Z,10.10
2023-02-02T13:28:53.844Z,9.90
2023-02-02T13:32:04.491Z,9.60
2023-02-02T13:35:07.705Z,9.50
2023-02-02T13:37:46.651Z,9.40
2023-02-02T13:40:19.406Z,9.50
2023-02-02T13:43:07.724Z,9.50
2023-02-02T13:45:58.002Z,9.60
2023-02-02T13:48:55.805Z,9.80
2023-02-02T13:51:55.040Z,9.90
2023-02-02T13:54:50.964Z,10.20
2023-02-02T13:57:35.009Z,10.80
2023-02-02T14:00:13.683Z,10.90
2023-02-02T14:02:45.646Z,10.90
2023-02-02T14:05:26.270Z,11.00
2023-02-02T14:08:06.729Z,11.20
2023-02-02T14:10:35.764Z,11.20
2023-02-02T14:13:08.124Z,11.00
2023-02-02T14:15:41.046Z,10.90
2023-02-02T14:18:08.204Z,10.90
2023-02-02T14:20:44.489Z,10.60
2023-02-02T14:23:51.049Z,10.00
2023-02-02T14:26:21.851Z,9.80
2023-02-02T14:28:51.563Z,9.60
2023-02-02T14:31:42.402Z,9.40
2023-02-02T14:34:25.806Z,9.40
2023-02-02T14:37:22.978Z,9.90
2023-02-02T14:40:10.804Z,10.40
2023-02-02T14:43:23.538Z,10.50
2023-02-02T14:46:13.101Z,10.80
2023-02-02T14:48:43.084Z,10.50
2023-02-02T14:51:25.217Z,10.10
2023-02-02T14:54:00.759Z,9.90
2023-02-02T14:56:45.596Z,10.10
2023-02-02T14:59:35.019Z,10.30
2023-02-02T15:02:24.557Z,10.40
2023-02-02T15:04:51.775Z,9.90
2023-02-02T15:07:24.665Z,9.80
2023-02-02T15:09:56.565Z,9.60
2023-02-02T15:12:34.513Z,9.50
2023-02-02T15:15:10.812Z,9.80
2023-02-02T15:17:40.813Z,10.20
2023-02-02T15:20:25.572Z,10.30
2023-02-02T15:23:19.297Z,10.40
2023-02-02T15:25:48.601Z,9.80
2023-02-02T15:28:26.646Z,9.40
2023-02-02T15:31:01.364Z,9.30
2023-02-02T15:33:41.723Z,9.40
2023-02-02T15:36:11.807Z,9.40
2023-02-02T15:38:41.288Z,9.30
2023-02-02T15:41:33.665Z,9.20
2023-02-02T15:44:01.327Z,9.00
2023-02-02T15:46:35.256Z,8.80
2023-02-02T15:49:33.753Z,8.70
2023-02-02T15:52:11.612Z,8.70
2023-02-02T15:54:38.686Z,8.60
2023-02-02T15:57:34.852Z,8.40
2023-02-02T16:00:24.926Z,8.00
2023-02-02T16:02:58.563Z,7.40
2023-02-02T16:05:44.255Z,7.30
2023-02-02T16:08:21.407Z,7.30
2023-02-02T16:10:49.523Z,7.30
2023-02-02T16:13:28.606Z,7.40
2023-02-02T16:16:01.038Z,7.50
2023-02-02T16:18:28.692Z,7.40
2023-02-02T16:20:57.566Z,7.00
2023-02-02T16:23:34.367Z,6.70
2023-02-02T16:26:04.883Z,6.40
2023-02-02T16:28:32.623Z,6.40
2023-02-02T16:31:01.622Z,6.50
2023-02-02T16:33:44.902Z,6.50
2023-02-02T16:36:26.695Z,6.60
2023-02-02T16:38:55.029Z,6.60
2023-02-02T16:41:37.519Z,6.60
2023-02-02T16:44:45.171Z,6.60
2023-02-02T16:47:27.161Z,6.60
2023-02-02T16:50:15.274Z,6.40
2023-02-02T16:52:49.638Z,6.30
2023-02-02T16:55:18.287Z,6.20
2023-02-02T16:57:47.204Z,6.30
2023-02-02T17:00:24.124Z,6.30
2023-02-02T17:02:58.415Z,6.40
2023-02-02T17:05:29.349Z,6.40
2023-02-02T17:08:06.166Z,6.40
2023-02-02T17:10:39.241Z,6.40
2023-02-02T17:13:30.754Z,6.30
2023-02-02T17:15:59.244Z,6.30
2023-02-02T17:18:26.412Z,6.30
2023-02-02T17:21:03.778Z,6.30
2023-02-02T17:23:36.364Z,6.20
2023-02-02T17:26:04.482Z,6.20
2023-02-02T17:28:31.766Z,6.20
2023-02-02T17:31:06.761Z,6.20
2023-02-02T17:33:35.274Z,6.20
2023-02-02T17:36:02.949Z,6.20
2023-02-02T17:38:30.203Z,6.10
2023-02-02T17:41:01.751Z,6.10
2023-02-02T17:43:32.312Z,6.10
2023-02-02T17:45:59.788Z,6.20
2023-02-02T17:48:26.762Z,6.20
2023-02-02T17:50:53.843Z,6.10
2023-02-02T17:53:22.201Z,6.10
2023-02-02T17:55:50.294Z,6.00
2023-02-02T17:58:18.164Z,6.00
2023-02-02T18:00:55.241Z,5.90
2023-02-02T18:03:26.676Z,6.00
2023-02-02T18:05:53.802Z,5.90
2023-02-02T18:08:20.778Z,5.90
2023-02-02T18:10:47.816Z,5.80
2023-02-02T18:13:16.687Z,5.80
2023-02-02T18:15:44.205Z,5.80
2023-02-02T18:18:12.591Z,5.80
2023-02-02T18:20:43.744Z,5.70
2023-02-02T18:23:11.165Z,5.70
2023-02-02T18:25:39.575Z,5.60
2023-02-02T18:28:07.788Z,5.60
2023-02-02T18:30:35.186Z,5.50
2023-02-02T18:33:02.319Z,5.50
2023-02-02T18:35:29.325Z,5.40
2023-02-02T18:37:56.285Z,5.40
2023-02-02T18:40:23.193Z,5.40
2023-02-02T18:42:50.497Z,5.40
2023-02-02T18:45:17.448Z,5.40
2023-02-02T18:47:44.375Z,5.50
2023-02-02T18:50:11.341Z,5.40
2023-02-02T18:52:38.249Z,5.30
2023-02-02T18:55:05.386Z,5.20
2023-02-02T18:57:32.284Z,5.30
2023-02-02T18:59:59.225Z,5.30
2023-02-02T19:02:26.527Z,5.30
2023-02-02T19:05:11.856Z,5.20
2023-02-02T19:07:57.525Z,5.20
2023-02-02T19:10:25.861Z,5.10
2023-02-02T19:13:09.637Z,5.10
2023-02-02T19:15:42.438Z,5.10
2023-02-02T19:18:18.432Z,5.10
2023-02-02T19:20:46.366Z,5.10
2023-02-02T19:23:15.923Z,5.00
2023-02-02T19:25:50.771Z,5.00
2023-02-02T19:28:21.058Z,5.00
2023-02-02T19:30:48.495Z,5.00
2023-02-02T19:33:17.007Z,5.00
2023-02-02T19:35:46.637Z,4.90
2023-02-02T19:38:14.683Z,4.90
2023-02-02T19:40:43.258Z,5.00
2023-02-02T19:43:13.605Z,4.90
2023-02-02T19:45:41.210Z,4.90
2023-02-02T19:48:18.059Z,4.90
2023-02-02T19:50:45.850Z,4.90
2023-02-02T19:53:38.243Z,4.90
2023-02-02T19:56:30.537Z,4.90
2023-02-02T19:58:59.086Z,4.80
2023-02-02T20:01:30.124Z,4.70
2023-02-02T20:03:58.577Z,4.70
2023-02-02T20:06:30.476Z,4.80
2023-02-02T20:08:59.767Z,4.80
2023-02-02T20:11:37.519Z,4.80
2023-02-02T20:14:19.433Z,4.80
2023-02-02T20:16:52.529Z,4.70
2023-02-02T20:19:25.056Z,4.70
2023-02-02T20:21:53.397Z,4.70
2023-02-02T20:24:37.181Z,4.70
2023-02-02T20:27:22.519Z,4.60
2023-02-02T20:29:51.285Z,4.60
2023-02-02T20:32:35.847Z,4.70
2023-02-02T20:35:21.453Z,4.60
2023-02-02T20:37:48.485Z,4.60
2023-02-02T20:40:21.580Z,4.60
2023-02-02T20:42:49.338Z,4.70
2023-02-02T20:45:18.553Z,4.70
2023-02-02T20:47:46.087Z,4.60
2023-02-02T20:50:15.724Z,4.50
2023-02-02T20:52:43.134Z,4.50
2023-02-02T20:55:11.043Z,4.50
2023-02-02T20:57:41.211Z,4.50
2023-02-02T21:00:11.645Z,4.50
2023-02-02T21:02:38.702Z,4.50
2023-02-02T21:05:06.036Z,4.60
2023-02-02T21:07:33.050Z,4.50
2023-02-02T21:10:00.059Z,4.50
2023-02-02T21:12:27.377Z,4.50
2023-02-02T21:14:55.723Z,4.40
2023-02-02T21:17:22.845Z,4.50
2023-02-02T21:19:50.043Z,4.60
2023-02-02T21:22:17.017Z,4.50
2023-02-02T21:24:43.965Z,4.50
2023-02-02T21:27:11.174Z,4.50
2023-02-02T21:29:38.597Z,4.50
2023-02-02T21:32:06.411Z,4.50
2023-02-02T21:34:33.778Z,4.50
2023-02-02T21:37:00.802Z,4.50
2023-02-02T21:39:48.083Z,4.40
2023-02-02T21:42:22.943Z,4.40
2023-02-02T21:44:54.372Z,4.40
2023-02-02T21:47:28.850Z,4.50
2023-02-02T21:49:58.851Z,4.50
2023-02-02T21:52:28.723Z,4.50
2023-02-02T21:54:55.924Z,4.50
2023-02-02T21:57:45.650Z,4.60
2023-02-02T22:00:39.082Z,4.60
2023-02-02T22:03:26.925Z,4.50
2023-02-02T22:06:03.079Z,4.50
2023-02-02T22:08:36.116Z,4.40
2023-02-02T22:11:03.483Z,4.50
2023-02-02T22:13:34.847Z,4.50
2023-02-02T22:16:03.390Z,4.50
2023-02-02T22:18:32.619Z,4.60
2023-02-02T22:20:59.871Z,4.60
2023-02-02T22:23:29.695Z,4.60
2023-02-02T22:25:58.655Z,4.60
2023-02-02T22:28:42.052Z,4.60
2023-02-02T22:31:10.565Z,4.60
2023-02-02T22:33:37.817Z,4.60
2023-02-02T22:36:04.967Z,4.60
2023-02-02T22:38:31.925Z,4.60
2023-02-02T22:40:58.872Z,4.50
2023-02-02T22:43:26.127Z,4.50
2023-02-02T22:45:52.995Z,4.50
2023-02-02T22:48:20.124Z,4.40
2023-02-02T22:50:47.350Z,4.40
2023-02-02T22:53:15.609Z,4.40
2023-02-02T22:55:43.561Z,4.40
2023-02-02T22:58:10.543Z,4.40
2023-02-02T23:00:37.828Z,4.30
2023-02-02T23:03:04.815Z,4.20
2023-02-02T23:05:31.807Z,4.20
2023-02-02T23:07:58.768Z,4.20
2023-02-02T23:10:27.983Z,4.20
2023-02-02T23:12:58.572Z,4.20
2023-02-02T23:15:26.378Z,4.20
2023-02-02T23:17:53.542Z,4.10
2023-02-02T23:20:20.815Z,4.10
2023-02-02T23:22:47.772Z,4.10
2023-02-02T23:25:14.911Z,4.10
2023-02-02T23:27:45.754Z,4.10
2023-02-02T23:30:14.413Z,4.00
2023-02-02T23:32:41.728Z,4.00
2023-02-02T23:35:10.755Z,4.00
2023-02-02T23:37:38.211Z,4.00
2023-02-02T23:40:06.287Z,4.00
2023-02-02T23:42:34.017Z,4.00
2023-02-02T23:45:01.012Z,4.00
2023-02-02T23:47:28.364Z,3.90
2023-02-02T23:49:55.890Z,3.90
2023-02-02T23:52:23.334Z,3.90
2023-02-02T23:54:50.364Z,3.90
2023-02-02T23:57:17.408Z,3.90
2023-02-02T23:59:44.297Z,3.90
